Time;durP1;ratioP1;P1;durP2;ratioP2;P2;SDS_P1;SDS_P2;PMS_P1;PMS_P2;Temp;Humidity;BMP_temperature;BMP_pressure;BME280_temperature;BME280_humidity;BME280_pressure;Samples;Min_cycle;Max_cycle;Signal;HPM_P1;HPM_P2
2021/08/30 00:00:41;;;;;;;7.53;4.07;;;;;;;;;;4948747;28;20484;-72
2021/08/30 00:03:07;;;;;;;4.68;3.50;;;;;;;;;;4953522;28;20083;-65
2021/08/30 00:05:33;;;;;;;6.90;3.90;;;;;;;;;;4954098;28;20023;-61
2021/08/30 00:07:59;;;;;;;4.45;3.60;;;;;;;;;;4954362;28;20027;-68
2021/08/30 00:10:25;;;;;;;6.22;3.58;;;;;;;;;;4949121;28;20098;-71
2021/08/30 00:12:51;;;;;;;4.03;3.60;;;;;;;;;;4952826;28;20545;-71
2021/08/30 00:15:22;;;;;;;5.15;3.85;;;;;;;;;;4957002;28;20050;-69
2021/08/30 00:17:50;;;;;;;5.53;3.60;;;;;;;;;;4943334;28;20043;-71
2021/08/30 00:20:17;;;;;;;5.57;3.20;;;;;;;;;;4946673;28;20023;-71
2021/08/30 00:22:43;;;;;;;6.70;3.50;;;;;;;;;;4960972;28;20201;-68
2021/08/30 00:25:10;;;;;;;4.50;3.50;;;;;;;;;;4969937;28;20106;-71
2021/08/30 00:27:36;;;;;;;4.75;3.63;;;;;;;;;;4965982;28;20031;-72
2021/08/30 00:30:02;;;;;;;3.70;3.30;;;;;;;;;;4973664;28;20027;-71
2021/08/30 00:32:28;;;;;;;5.50;3.55;;;;;;;;;;4966457;28;20026;-71
2021/08/30 00:34:54;;;;;;;5.28;3.65;;;;;;;;;;4966275;28;20030;-70
2021/08/30 00:37:20;;;;;;;4.45;3.60;;;;;;;;;;4966649;28;20114;-67
2021/08/30 00:39:47;;;;;;;8.93;3.58;;;;;;;;;;4972939;28;20023;-71
2021/08/30 00:42:13;;;;;;;4.55;3.60;;;;;;;;;;4962603;28;20042;-71
2021/08/30 00:44:39;;;;;;;6.15;3.65;;;;;;;;;;4961347;28;20107;-71
2021/08/30 00:47:05;;;;;;;5.05;3.45;;;;;;;;;;4973368;28;20059;-71
2021/08/30 00:49:32;;;;;;;6.18;3.97;;;;;;;;;;4963938;28;20037;-70
2021/08/30 00:51:58;;;;;;;5.00;3.80;;;;;;;;;;4973094;28;20031;-71
2021/08/30 00:54:27;;;;;;;4.43;3.80;;;;;;;;;;4966586;28;20039;-70
2021/08/30 00:56:54;;;;;;;7.00;4.03;;;;;;;;;;4973320;28;20035;-72
2021/08/30 00:59:20;;;;;;;5.43;3.85;;;;;;;;;;4964947;28;20106;-71
2021/08/30 01:01:46;;;;;;;5.32;4.18;;;;;;;;;;4972969;28;20030;-62
2021/08/30 01:04:14;;;;;;;6.03;4.40;;;;;;;;;;4972639;28;20105;-70
2021/08/30 01:07:01;;;;;;;5.13;4.00;;;;;;;;;;4972375;28;20086;-72
2021/08/30 01:09:46;;;;;;;6.28;4.25;;;;;;;;;;4961055;28;20034;-71
2021/08/30 01:12:17;;;;;;;5.07;3.95;;;;;;;;;;4964491;28;20033;-71
2021/08/30 01:14:43;;;;;;;4.63;4.18;;;;;;;;;;4957591;28;20463;-70
2021/08/30 01:17:09;;;;;;;5.32;4.15;;;;;;;;;;4964798;28;20109;-68
2021/08/30 01:19:39;;;;;;;6.93;4.00;;;;;;;;;;4970875;28;20027;-71
2021/08/30 01:22:06;;;;;;;4.15;3.70;;;;;;;;;;4974093;28;20511;-73
2021/08/30 01:24:33;;;;;;;6.45;3.90;;;;;;;;;;4978058;28;20026;-73
2021/08/30 01:27:00;;;;;;;5.10;4.00;;;;;;;;;;4976013;28;20035;-72
2021/08/30 01:29:52;;;;;;;5.20;3.95;;;;;;;;;;4974196;28;20035;-72
2021/08/30 01:32:24;;;;;;;6.22;3.72;;;;;;;;;;4939069;28;20035;-72
2021/08/30 01:34:51;;;;;;;5.45;3.83;;;;;;;;;;4974365;28;20019;-69
2021/08/30 01:37:17;;;;;;;6.38;3.85;;;;;;;;;;4971247;28;20102;-70
2021/08/30 01:39:44;;;;;;;6.43;4.15;;;;;;;;;;4975836;28;20050;-69
2021/08/30 01:42:10;;;;;;;4.97;3.88;;;;;;;;;;4972070;28;20046;-71
2021/08/30 01:44:36;;;;;;;4.57;3.90;;;;;;;;;;4957653;28;20426;-72
2021/08/30 01:47:02;;;;;;;4.78;3.72;;;;;;;;;;4968132;28;20029;-70
2021/08/30 01:49:29;;;;;;;4.82;4.03;;;;;;;;;;4967759;28;20500;-65
2021/08/30 01:51:56;;;;;;;4.10;3.67;;;;;;;;;;4974106;28;20086;-69
2021/08/30 01:54:23;;;;;;;4.60;4.05;;;;;;;;;;4969947;28;20031;-71
2021/08/30 01:56:51;;;;;;;4.60;3.70;;;;;;;;;;4974257;28;20126;-70
2021/08/30 02:02:05;;;;;;;5.43;3.60;;;;;;;;;;4967826;28;20042;-70
2021/08/30 02:04:32;;;;;;;4.45;3.53;;;;;;;;;;4974266;28;20485;-67
2021/08/30 02:06:59;;;;;;;5.40;3.65;;;;;;;;;;4975773;28;20062;-71
2021/08/30 02:09:25;;;;;;;5.15;3.70;;;;;;;;;;4976003;28;20030;-67
2021/08/30 02:11:53;;;;;;;5.63;3.70;;;;;;;;;;4975202;28;20059;-67
2021/08/30 02:14:20;;;;;;;4.90;3.75;;;;;;;;;;4972484;28;20060;-63
2021/08/30 02:16:49;;;;;;;4.88;3.63;;;;;;;;;;4963092;28;20041;-71
2021/08/30 02:19:15;;;;;;;4.53;3.25;;;;;;;;;;4975517;28;20855;-72
2021/08/30 02:21:43;;;;;;;3.90;3.50;;;;;;;;;;4969193;28;20054;-71
2021/08/30 02:24:27;;;;;;;4.25;3.65;;;;;;;;;;4964645;28;20506;-72
2021/08/30 02:26:56;;;;;;;4.97;3.28;;;;;;;;;;4969265;28;20437;-72
2021/08/30 02:29:34;;;;;;;4.53;3.40;;;;;;;;;;4977439;28;20027;-72
2021/08/30 02:32:05;;;;;;;4.70;3.42;;;;;;;;;;4959203;28;20484;-62
2021/08/30 02:34:32;;;;;;;3.80;3.13;;;;;;;;;;4977947;28;20030;-72
2021/08/30 02:36:59;;;;;;;4.57;3.40;;;;;;;;;;4978721;28;20047;-71
2021/08/30 02:39:25;;;;;;;4.15;3.47;;;;;;;;;;4978832;28;20481;-67
2021/08/30 02:41:53;;;;;;;4.57;3.50;;;;;;;;;;4978403;28;20035;-71
2021/08/30 02:44:22;;;;;;;4.43;3.30;;;;;;;;;;4965581;28;20038;-69
2021/08/30 02:46:48;;;;;;;4.40;3.30;;;;;;;;;;4978158;28;20498;-70
2021/08/30 02:49:15;;;;;;;4.78;3.47;;;;;;;;;;4978051;28;20019;-72
2021/08/30 02:51:42;;;;;;;4.07;3.38;;;;;;;;;;4978332;28;20113;-69
2021/08/30 02:54:09;;;;;;;5.45;3.40;;;;;;;;;;4975531;28;20031;-69
2021/08/30 02:56:38;;;;;;;6.22;3.40;;;;;;;;;;4966866;28;20051;-67
2021/08/30 02:59:04;;;;;;;4.38;3.60;;;;;;;;;;4965407;28;20148;-69
2021/08/30 03:01:31;;;;;;;4.20;3.38;;;;;;;;;;4974068;28;20037;-69
2021/08/30 03:03:57;;;;;;;6.53;3.50;;;;;;;;;;4973612;28;20023;-63
2021/08/30 03:06:23;;;;;;;4.28;3.50;;;;;;;;;;4967700;28;20503;-73
2021/08/30 03:08:50;;;;;;;4.38;3.60;;;;;;;;;;4974667;28;20030;-67
2021/08/30 03:11:16;;;;;;;3.92;3.22;;;;;;;;;;4964783;28;20031;-67
2021/08/30 03:13:44;;;;;;;5.88;3.78;;;;;;;;;;4973289;28;20031;-69
2021/08/30 03:16:10;;;;;;;7.78;3.60;;;;;;;;;;4961340;28;20050;-71
2021/08/30 03:18:39;;;;;;;5.40;3.40;;;;;;;;;;4969534;28;20030;-69
2021/08/30 03:21:05;;;;;;;5.15;3.20;;;;;;;;;;4961055;28;20043;-71
2021/08/30 03:23:32;;;;;;;4.22;3.33;;;;;;;;;;4963158;28;20173;-70
2021/08/30 03:25:58;;;;;;;5.20;3.58;;;;;;;;;;4966762;28;20377;-72
2021/08/30 03:28:25;;;;;;;7.38;3.47;;;;;;;;;;4962824;28;20042;-71
2021/08/30 03:30:52;;;;;;;4.13;3.17;;;;;;;;;;4959197;28;20489;-72
2021/08/30 03:33:19;;;;;;;3.50;3.20;;;;;;;;;;4960032;28;20071;-69
2021/08/30 03:35:45;;;;;;;5.50;3.65;;;;;;;;;;4971387;28;20047;-70
2021/08/30 03:38:12;;;;;;;6.15;3.78;;;;;;;;;;4973787;28;20030;-71
2021/08/30 03:40:39;;;;;;;6.10;3.65;;;;;;;;;;4968612;28;20054;-71
2021/08/30 03:43:06;;;;;;;5.25;3.50;;;;;;;;;;4973641;28;20026;-71
2021/08/30 03:45:32;;;;;;;5.32;3.95;;;;;;;;;;4978734;28;20045;-72
2021/08/30 03:48:00;;;;;;;6.45;3.55;;;;;;;;;;4970084;28;20022;-71
2021/08/30 03:50:28;;;;;;;4.43;3.30;;;;;;;;;;4972239;28;20171;-71
2021/08/30 03:52:54;;;;;;;4.05;3.60;;;;;;;;;;4974024;28;20081;-70
2021/08/30 03:55:21;;;;;;;8.55;4.00;;;;;;;;;;4968548;28;20091;-70
2021/08/30 03:57:51;;;;;;;6.28;4.03;;;;;;;;;;4956424;28;20082;-71
2021/08/30 04:00:20;;;;;;;6.30;3.97;;;;;;;;;;4971248;28;20024;-71
2021/08/30 04:02:46;;;;;;;8.25;4.20;;;;;;;;;;4968583;28;20103;-69
2021/08/30 04:05:18;;;;;;;6.55;4.00;;;;;;;;;;4986133;28;20022;-71
2021/08/30 04:07:44;;;;;;;6.85;4.18;;;;;;;;;;4980558;28;20018;-71
2021/08/30 04:10:10;;;;;;;6.00;4.60;;;;;;;;;;4973075;28;20046;-69
2021/08/30 04:12:36;;;;;;;5.82;4.10;;;;;;;;;;4973444;28;20030;-70
2021/08/30 04:15:05;;;;;;;5.82;4.03;;;;;;;;;;4973693;28;20034;-69
2021/08/30 04:17:33;;;;;;;5.60;4.20;;;;;;;;;;4973469;28;20048;-69
2021/08/30 04:19:59;;;;;;;5.43;4.30;;;;;;;;;;4968950;28;20027;-67
2021/08/30 04:22:26;;;;;;;5.72;4.28;;;;;;;;;;4981446;28;20563;-68
2021/08/30 04:24:55;;;;;;;9.07;4.50;;;;;;;;;;4984003;28;20026;-71
2021/08/30 04:27:22;;;;;;;8.38;4.70;;;;;;;;;;4974191;28;20037;-68
2021/08/30 04:29:48;;;;;;;7.65;4.30;;;;;;;;;;4977012;28;20110;-69
2021/08/30 04:32:14;;;;;;;8.95;5.03;;;;;;;;;;4971032;28;20038;-63
2021/08/30 04:34:41;;;;;;;7.78;4.72;;;;;;;;;;4972145;28;20151;-63
2021/08/30 04:37:08;;;;;;;7.55;4.35;;;;;;;;;;4971973;28;20396;-64
2021/08/30 04:39:34;;;;;;;5.88;4.55;;;;;;;;;;4973233;28;20015;-67
2021/08/30 04:42:03;;;;;;;6.97;4.30;;;;;;;;;;4972061;28;20038;-64
2021/08/30 04:44:29;;;;;;;7.32;4.50;;;;;;;;;;4971014;28;20030;-60
2021/08/30 04:46:55;;;;;;;6.50;4.25;;;;;;;;;;4973499;28;20035;-66
2021/08/30 04:49:22;;;;;;;9.68;4.55;;;;;;;;;;4980483;28;20027;-73
2021/08/30 04:51:48;;;;;;;5.63;4.50;;;;;;;;;;4979780;28;20053;-74
2021/08/30 04:54:14;;;;;;;8.15;4.43;;;;;;;;;;4980602;28;20018;-71
2021/08/30 04:56:40;;;;;;;10.30;4.85;;;;;;;;;;4979604;28;20038;-72
2021/08/30 04:59:06;;;;;;;7.90;4.15;;;;;;;;;;4979615;28;20110;-73
2021/08/30 05:01:32;;;;;;;4.90;3.88;;;;;;;;;;4979368;28;20460;-73
2021/08/30 05:03:59;;;;;;;8.02;4.10;;;;;;;;;;4980120;28;20027;-61
2021/08/30 05:06:25;;;;;;;6.18;4.28;;;;;;;;;;4979831;28;20033;-75
2021/08/30 05:08:51;;;;;;;7.15;4.00;;;;;;;;;;4980303;28;20056;-62
2021/08/30 05:11:17;;;;;;;6.80;4.28;;;;;;;;;;4975075;28;20030;-75
2021/08/30 05:13:43;;;;;;;5.07;4.10;;;;;;;;;;4980443;28;20031;-73
2021/08/30 05:16:09;;;;;;;8.30;4.05;;;;;;;;;;4971556;28;20031;-65
2021/08/30 05:18:39;;;;;;;8.20;4.07;;;;;;;;;;4975228;28;20037;-73
2021/08/30 05:21:05;;;;;;;3.67;3.13;;;;;;;;;;4983593;28;20388;-69
2021/08/30 05:23:31;;;;;;;7.93;3.72;;;;;;;;;;4978643;28;20051;-61
2021/08/30 05:25:57;;;;;;;5.47;3.78;;;;;;;;;;4980097;28;20381;-73
2021/08/30 05:28:24;;;;;;;5.00;3.30;;;;;;;;;;4979661;28;20384;-63
2021/08/30 05:30:50;;;;;;;4.63;3.60;;;;;;;;;;4959274;28;20051;-68
2021/08/30 05:33:16;;;;;;;6.70;3.35;;;;;;;;;;4971017;28;20035;-75
2021/08/30 05:35:42;;;;;;;8.23;3.90;;;;;;;;;;4978347;28;20026;-63
2021/08/30 05:38:08;;;;;;;6.85;3.78;;;;;;;;;;4980655;28;20031;-72
2021/08/30 05:40:34;;;;;;;6.88;3.20;;;;;;;;;;4980683;28;20155;-63
2021/08/30 05:43:00;;;;;;;4.93;3.10;;;;;;;;;;4976822;28;20059;-68
2021/08/30 05:45:26;;;;;;;3.92;2.85;;;;;;;;;;4972323;28;20022;-68
2021/08/30 05:47:52;;;;;;;5.05;3.03;;;;;;;;;;4980361;28;20023;-67
2021/08/30 05:50:19;;;;;;;7.78;2.95;;;;;;;;;;4967056;28;20023;-64
2021/08/30 05:52:45;;;;;;;5.63;2.90;;;;;;;;;;4977572;28;20033;-75
2021/08/30 05:55:11;;;;;;;3.97;2.80;;;;;;;;;;4980738;28;20029;-73
2021/08/30 05:57:40;;;;;;;2.78;2.50;;;;;;;;;;4979887;28;20031;-65
2021/08/30 06:00:07;;;;;;;2.90;2.60;;;;;;;;;;4970044;28;20500;-67
2021/08/30 06:02:33;;;;;;;3.15;2.50;;;;;;;;;;4975313;28;20034;-68
2021/08/30 06:05:03;;;;;;;3.53;2.55;;;;;;;;;;4972840;28;20027;-69
2021/08/30 06:07:29;;;;;;;3.58;2.50;;;;;;;;;;4983232;28;20007;-74
2021/08/30 06:09:57;;;;;;;5.65;2.80;;;;;;;;;;4986491;28;20058;-71
2021/08/30 06:12:24;;;;;;;3.70;2.60;;;;;;;;;;4954111;28;20118;-77
2021/08/30 06:14:50;;;;;;;4.63;2.63;;;;;;;;;;4974947;28;20035;-69
2021/08/30 06:17:16;;;;;;;4.18;2.80;;;;;;;;;;4962558;28;20061;-68
2021/08/30 06:19:42;;;;;;;5.20;2.78;;;;;;;;;;4974931;28;20027;-69
2021/08/30 06:22:09;;;;;;;4.25;2.53;;;;;;;;;;4974349;28;20053;-79
2021/08/30 06:24:52;;;;;;;5.70;2.40;;;;;;;;;;4979346;28;20027;-69
2021/08/30 06:27:20;;;;;;;5.90;2.60;;;;;;;;;;4974321;28;20034;-79
2021/08/30 06:33:04;;;;;;;4.05;2.38;;;;;;;;;;4963960;28;20042;-84
2021/08/30 06:35:33;;;;;;;2.85;2.45;;;;;;;;;;4968712;28;20030;-74
2021/08/30 06:38:00;;;;;;;3.97;2.60;;;;;;;;;;4959300;28;20043;-71
2021/08/30 06:40:26;;;;;;;4.40;2.65;;;;;;;;;;4975246;28;20489;-83
2021/08/30 06:42:52;;;;;;;2.92;2.60;;;;;;;;;;4957651;28;20490;-74
2021/08/30 06:45:22;;;;;;;5.00;2.70;;;;;;;;;;4974292;28;20674;-76
2021/08/30 06:47:48;;;;;;;2.72;2.50;;;;;;;;;;4955635;28;20043;-72
2021/08/30 06:50:30;;;;;;;2.95;2.60;;;;;;;;;;4959204;28;20501;-78
2021/08/30 06:52:56;;;;;;;4.40;2.72;;;;;;;;;;4971930;28;20054;-79
2021/08/30 06:55:22;;;;;;;3.17;2.30;;;;;;;;;;4973792;28;20031;-70
2021/08/30 06:57:48;;;;;;;5.88;2.72;;;;;;;;;;4971197;28;20074;-68
2021/08/30 07:00:17;;;;;;;3.95;2.50;;;;;;;;;;4975012;28;20096;-69
2021/08/30 07:02:43;;;;;;;2.70;2.45;;;;;;;;;;4976514;28;20035;-85
2021/08/30 07:05:09;;;;;;;3.67;2.60;;;;;;;;;;4960252;28;20485;-75
2021/08/30 07:07:35;;;;;;;5.55;2.58;;;;;;;;;;4974551;28;20555;-75
2021/08/30 07:10:01;;;;;;;4.90;2.80;;;;;;;;;;4973431;28;20098;-78
2021/08/30 07:12:27;;;;;;;3.55;2.65;;;;;;;;;;4961185;28;20097;-70
2021/08/30 07:14:53;;;;;;;5.72;2.60;;;;;;;;;;4971270;28;20035;-71
2021/08/30 07:17:29;;;;;;;6.38;2.50;;;;;;;;;;4972913;28;20417;-75
2021/08/30 07:19:55;;;;;;;3.70;2.35;;;;;;;;;;4973361;28;20473;-72
2021/08/30 07:22:21;;;;;;;3.25;2.35;;;;;;;;;;4973789;28;20546;-73
2021/08/30 07:24:47;;;;;;;3.30;2.40;;;;;;;;;;4954349;28;20030;-72
2021/08/30 07:27:13;;;;;;;5.63;2.60;;;;;;;;;;4973201;28;20058;-68
2021/08/30 07:29:39;;;;;;;2.70;2.22;;;;;;;;;;4962247;28;20020;-68
2021/08/30 07:32:06;;;;;;;2.90;2.30;;;;;;;;;;4968545;28;20031;-74
2021/08/30 07:34:37;;;;;;;4.00;2.40;;;;;;;;;;4973040;28;20035;-71
2021/08/30 07:37:04;;;;;;;3.95;2.40;;;;;;;;;;4967152;28;20051;-71
2021/08/30 07:39:30;;;;;;;2.92;2.50;;;;;;;;;;4972641;28;20495;-70
2021/08/30 07:41:56;;;;;;;4.32;2.60;;;;;;;;;;4972799;28;20373;-83
2021/08/30 07:44:24;;;;;;;3.03;2.28;;;;;;;;;;4974780;28;20019;-77
2021/08/30 07:46:50;;;;;;;4.28;2.40;;;;;;;;;;4972450;28;20489;-75
2021/08/30 07:49:16;;;;;;;5.13;2.50;;;;;;;;;;4974323;28;20042;-80
2021/08/30 07:51:43;;;;;;;3.78;2.33;;;;;;;;;;4975872;28;20027;-81
2021/08/30 07:54:25;;;;;;;3.72;2.70;;;;;;;;;;4967740;28;20074;-72
2021/08/30 07:56:54;;;;;;;5.28;2.80;;;;;;;;;;4953519;28;20053;-70
2021/08/30 07:59:20;;;;;;;3.15;2.55;;;;;;;;;;4959110;28;20027;-79
2021/08/30 08:01:47;;;;;;;4.88;2.45;;;;;;;;;;4959349;28;20049;-68
2021/08/30 08:04:13;;;;;;;5.95;2.70;;;;;;;;;;4973290;28;20037;-69
2021/08/30 08:06:39;;;;;;;5.43;2.45;;;;;;;;;;4969526;28;20437;-72
2021/08/30 08:09:05;;;;;;;4.35;2.45;;;;;;;;;;4973069;28;20066;-74
2021/08/30 08:11:31;;;;;;;5.50;2.50;;;;;;;;;;4973460;28;20038;-72
2021/08/30 08:13:59;;;;;;;4.50;2.50;;;;;;;;;;4973370;28;20397;-72
2021/08/30 08:16:25;;;;;;;9.25;2.78;;;;;;;;;;4965233;28;20168;-73
2021/08/30 08:18:53;;;;;;;5.22;2.58;;;;;;;;;;4970152;28;20031;-65
2021/08/30 08:21:20;;;;;;;4.55;2.80;;;;;;;;;;4970595;28;20030;-73
2021/08/30 08:23:46;;;;;;;6.63;2.75;;;;;;;;;;4971962;28;20065;-75
2021/08/30 08:26:12;;;;;;;4.13;2.42;;;;;;;;;;4973418;28;20043;-68
2021/08/30 08:28:38;;;;;;;4.93;2.58;;;;;;;;;;4973656;28;20107;-68
2021/08/30 08:31:04;;;;;;;4.57;2.70;;;;;;;;;;4973675;28;20400;-72
2021/08/30 08:33:30;;;;;;;5.53;2.40;;;;;;;;;;4948202;28;20035;-69
2021/08/30 08:35:56;;;;;;;5.03;2.83;;;;;;;;;;4968339;28;20089;-69
2021/08/30 08:38:23;;;;;;;3.53;2.45;;;;;;;;;;4962384;28;20117;-74
2021/08/30 08:40:50;;;;;;;3.13;2.55;;;;;;;;;;4972112;28;20019;-68
2021/08/30 08:43:17;;;;;;;3.83;2.80;;;;;;;;;;4973507;28;20400;-72
2021/08/30 08:45:44;;;;;;;5.78;2.75;;;;;;;;;;4972486;28;20484;-73
2021/08/30 08:48:11;;;;;;;3.40;2.95;;;;;;;;;;4963100;28;20093;-65
2021/08/30 08:50:37;;;;;;;4.20;2.75;;;;;;;;;;4973807;28;20033;-73
2021/08/30 08:53:06;;;;;;;5.57;2.88;;;;;;;;;;4973508;28;20485;-73
2021/08/30 08:55:37;;;;;;;8.48;2.80;;;;;;;;;;4974147;28;20038;-69
2021/08/30 08:58:13;;;;;;;5.40;2.70;;;;;;;;;;4973034;28;20082;-74
2021/08/30 09:00:40;;;;;;;7.78;2.63;;;;;;;;;;4973732;28;20441;-70
2021/08/30 09:03:26;;;;;;;3.40;2.75;;;;;;;;;;4973906;28;20093;-66
2021/08/30 09:06:02;;;;;;;3.80;2.50;;;;;;;;;;4969304;28;20481;-67
2021/08/30 09:08:28;;;;;;;4.50;2.72;;;;;;;;;;4964046;28;20038;-73
2021/08/30 09:10:54;;;;;;;2.83;2.47;;;;;;;;;;4971044;28;20027;-71
2021/08/30 09:13:25;;;;;;;4.88;4.03;;;;;;;;;;4973538;28;20037;-71
2021/08/30 09:15:52;;;;;;;6.13;2.60;;;;;;;;;;4967006;28;20061;-73
2021/08/30 09:18:18;;;;;;;4.97;2.95;;;;;;;;;;4971377;28;20469;-70
2021/08/30 09:20:44;;;;;;;2.95;2.60;;;;;;;;;;4962402;28;20023;-74
2021/08/30 09:23:12;;;;;;;5.78;2.60;;;;;;;;;;4973281;28;20101;-73
2021/08/30 09:25:38;;;;;;;4.75;2.95;;;;;;;;;;4973060;28;20086;-73
2021/08/30 09:28:05;;;;;;;3.15;2.45;;;;;;;;;;4973140;28;20027;-74
2021/08/30 09:30:31;;;;;;;5.78;2.92;;;;;;;;;;4971167;28;20030;-72
2021/08/30 09:32:57;;;;;;;2.83;2.45;;;;;;;;;;4970705;28;20548;-74
2021/08/30 09:35:26;;;;;;;2.67;2.40;;;;;;;;;;4970877;28;20428;-73
2021/08/30 09:37:52;;;;;;;4.38;3.17;;;;;;;;;;4970981;28;20042;-67
2021/08/30 09:40:20;;;;;;;4.05;2.80;;;;;;;;;;4976213;28;20027;-72
2021/08/30 09:42:47;;;;;;;4.28;2.60;;;;;;;;;;4976588;28;20022;-66
2021/08/30 09:45:17;;;;;;;3.55;2.63;;;;;;;;;;4976594;28;20117;-66
2021/08/30 09:47:57;;;;;;;4.13;2.60;;;;;;;;;;4976900;28;20076;-73
2021/08/30 09:50:33;;;;;;;5.18;2.80;;;;;;;;;;4973403;28;20026;-73
2021/08/30 09:52:59;;;;;;;6.25;2.80;;;;;;;;;;4969786;28;20114;-65
2021/08/30 09:55:26;;;;;;;4.93;2.75;;;;;;;;;;4976616;28;20030;-70
2021/08/30 09:57:53;;;;;;;3.45;2.60;;;;;;;;;;4975967;28;20061;-71
2021/08/30 10:00:20;;;;;;;3.63;2.70;;;;;;;;;;4976710;28;20477;-74
2021/08/30 10:02:47;;;;;;;4.22;2.53;;;;;;;;;;4975931;28;20031;-63
2021/08/30 10:05:14;;;;;;;2.95;2.53;;;;;;;;;;4976024;28;20030;-72
2021/08/30 10:07:42;;;;;;;5.45;2.72;;;;;;;;;;4976203;28;20081;-70
2021/08/30 10:10:09;;;;;;;7.60;2.80;;;;;;;;;;4976818;28;20030;-70
2021/08/30 10:12:35;;;;;;;4.25;2.50;;;;;;;;;;4976185;28;20037;-71
2021/08/30 10:15:02;;;;;;;3.10;2.53;;;;;;;;;;4964551;28;20031;-74
2021/08/30 10:17:28;;;;;;;6.13;2.33;;;;;;;;;;4962350;28;20042;-69
2021/08/30 10:19:58;;;;;;;2.67;2.42;;;;;;;;;;4975809;28;20023;-73
2021/08/30 10:22:24;;;;;;;3.45;2.63;;;;;;;;;;4975631;28;20489;-66
2021/08/30 10:24:51;;;;;;;5.20;2.90;;;;;;;;;;4974332;28;20023;-73
2021/08/30 10:27:28;;;;;;;4.88;3.10;;;;;;;;;;4974493;28;20058;-74
2021/08/30 10:30:03;;;;;;;8.82;5.15;;;;;;;;;;4969718;28;20046;-74
2021/08/30 10:32:31;;;;;;;6.35;3.97;;;;;;;;;;4971435;28;20378;-69
2021/08/30 10:34:57;;;;;;;4.90;3.50;;;;;;;;;;4974115;28;20069;-70
2021/08/30 10:37:23;;;;;;;6.47;4.28;;;;;;;;;;4975027;28;20054;-68
2021/08/30 10:39:54;;;;;;;9.30;6.20;;;;;;;;;;4975364;28;20019;-69
2021/08/30 10:42:21;;;;;;;5.22;3.63;;;;;;;;;;4975235;28;20049;-73
2021/08/30 10:44:57;;;;;;;3.97;2.72;;;;;;;;;;4961055;28;20031;-73
2021/08/30 10:47:25;;;;;;;7.65;4.95;;;;;;;;;;4971949;28;20043;-73
2021/08/30 10:49:51;;;;;;;5.55;2.90;;;;;;;;;;4975271;28;20022;-73
2021/08/30 10:52:18;;;;;;;3.28;2.40;;;;;;;;;;4975369;28;20023;-66
2021/08/30 10:54:50;;;;;;;4.38;2.90;;;;;;;;;;4975018;28;20107;-73
2021/08/30 10:57:17;;;;;;;4.13;2.85;;;;;;;;;;4974590;28;20039;-73
2021/08/30 10:59:43;;;;;;;6.07;3.50;;;;;;;;;;4974913;28;20077;-73
2021/08/30 11:02:10;;;;;;;3.70;2.78;;;;;;;;;;4974989;28;20023;-65
2021/08/30 11:04:36;;;;;;;3.95;2.67;;;;;;;;;;4974889;28;20050;-73
2021/08/30 11:07:04;;;;;;;4.10;2.47;;;;;;;;;;4971604;28;20035;-75
2021/08/30 11:09:30;;;;;;;4.35;2.40;;;;;;;;;;4969449;28;20031;-72
2021/08/30 11:12:06;;;;;;;2.67;2.47;;;;;;;;;;4974847;28;20026;-74
2021/08/30 11:14:35;;;;;;;3.30;2.40;;;;;;;;;;4974573;28;20034;-66
2021/08/30 11:17:01;;;;;;;5.47;2.55;;;;;;;;;;4974144;28;20042;-73
2021/08/30 11:19:27;;;;;;;2.60;2.30;;;;;;;;;;4974069;28;20037;-74
2021/08/30 11:21:54;;;;;;;2.80;2.50;;;;;;;;;;4974148;28;20031;-72
2021/08/30 11:24:23;;;;;;;4.35;2.47;;;;;;;;;;4974480;28;20038;-72
2021/08/30 11:26:49;;;;;;;5.43;2.30;;;;;;;;;;4966276;28;20400;-73
2021/08/30 11:29:15;;;;;;;3.65;2.40;;;;;;;;;;4976555;28;20031;-75
2021/08/30 11:31:41;;;;;;;2.50;2.30;;;;;;;;;;4974659;28;20038;-66
2021/08/30 11:34:09;;;;;;;4.53;2.42;;;;;;;;;;4974265;28;20110;-76
2021/08/30 11:36:48;;;;;;;5.15;2.40;;;;;;;;;;4974212;28;20547;-67
2021/08/30 11:39:15;;;;;;;5.28;2.20;;;;;;;;;;4972769;28;20037;-84
2021/08/30 11:41:46;;;;;;;3.55;2.20;;;;;;;;;;4971659;28;20524;-79
2021/08/30 11:44:13;;;;;;;2.50;2.30;;;;;;;;;;4972376;28;20031;-78
2021/08/30 11:46:50;;;;;;;4.28;2.25;;;;;;;;;;4973318;28;20027;-73
2021/08/30 11:49:27;;;;;;;4.15;2.40;;;;;;;;;;4973955;28;20433;-74
2021/08/30 11:51:54;;;;;;;4.53;2.42;;;;;;;;;;4975259;28;20026;-72
2021/08/30 11:54:26;;;;;;;4.00;2.20;;;;;;;;;;4973108;28;20037;-69
2021/08/30 11:56:57;;;;;;;2.50;2.10;;;;;;;;;;4973566;28;20117;-68
2021/08/30 11:59:31;;;;;;;4.03;2.45;;;;;;;;;;4977646;28;20027;-67
2021/08/30 12:01:57;;;;;;;3.03;2.17;;;;;;;;;;4964142;28;20028;-68
2021/08/30 12:04:26;;;;;;;2.72;2.20;;;;;;;;;;4972091;28;20039;-65
2021/08/30 12:06:57;;;;;;;3.75;2.00;;;;;;;;;;4971672;28;20037;-67
2021/08/30 12:09:55;;;;;;;4.85;2.47;;;;;;;;;;4971220;28;20084;-73
2021/08/30 12:12:29;;;;;;;2.35;2.15;;;;;;;;;;4966723;28;20171;-73
2021/08/30 12:15:14;;;;;;;4.88;2.38;;;;;;;;;;4954134;28;20047;-73
2021/08/30 12:17:44;;;;;;;3.38;2.35;;;;;;;;;;4971657;28;20396;-73
2021/08/30 12:20:29;;;;;;;2.72;2.20;;;;;;;;;;4972112;28;20019;-81
2021/08/30 12:22:57;;;;;;;3.97;2.40;;;;;;;;;;4941612;28;20047;-84
2021/08/30 12:25:25;;;;;;;3.83;2.60;;;;;;;;;;4953904;28;20117;-76
2021/08/30 12:27:54;;;;;;;2.40;2.20;;;;;;;;;;4971829;28;20049;-77
2021/08/30 12:30:26;;;;;;;3.80;2.55;;;;;;;;;;4955263;28;20114;-78
2021/08/30 12:32:53;;;;;;;;;;;;;;;;;;4953184;28;20050;-81
2021/08/30 12:35:25;;;;;;;3.15;2.17;;;;;;;;;;4970223;28;19992;-71
2021/08/30 12:37:55;;;;;;;3.63;2.30;;;;;;;;;;4947829;28;20366;-65
2021/08/30 12:40:22;;;;;;;2.83;2.30;;;;;;;;;;4971694;28;20472;-75
2021/08/30 12:42:49;;;;;;;4.40;2.22;;;;;;;;;;4954301;28;20121;-71
2021/08/30 12:45:15;;;;;;;2.33;2.13;;;;;;;;;;4959459;28;20031;-73
2021/08/30 12:47:41;;;;;;;2.58;2.33;;;;;;;;;;4961126;28;20454;-72
2021/08/30 12:50:08;;;;;;;2.60;2.10;;;;;;;;;;4969333;28;20031;-70
2021/08/30 12:52:35;;;;;;;2.90;2.17;;;;;;;;;;4959361;28;20082;-70
2021/08/30 12:55:01;;;;;;;2.63;2.22;;;;;;;;;;4964969;28;20034;-69
2021/08/30 12:57:27;;;;;;;3.40;2.30;;;;;;;;;;4961053;28;20066;-67
2021/08/30 12:59:53;;;;;;;4.18;2.30;;;;;;;;;;4964337;28;20068;-66
2021/08/30 13:02:19;;;;;;;3.63;2.20;;;;;;;;;;4959308;28;20055;-74
2021/08/30 13:04:46;;;;;;;4.45;2.22;;;;;;;;;;4948796;28;20062;-72
2021/08/30 13:07:12;;;;;;;2.30;2.10;;;;;;;;;;4961133;28;20038;-71
2021/08/30 13:09:38;;;;;;;2.83;2.17;;;;;;;;;;4963656;28;20027;-69
2021/08/30 13:12:04;;;;;;;3.33;2.35;;;;;;;;;;4965995;28;20113;-70
2021/08/30 13:14:30;;;;;;;3.08;2.25;;;;;;;;;;4965173;28;20040;-72
2021/08/30 13:16:56;;;;;;;2.30;2.10;;;;;;;;;;4974773;28;20035;-66
2021/08/30 13:19:28;;;;;;;2.08;1.92;;;;;;;;;;4960896;28;20030;-69
2021/08/30 13:21:54;;;;;;;2.40;2.10;;;;;;;;;;4974407;28;20045;-71
2021/08/30 13:24:20;;;;;;;2.13;1.92;;;;;;;;;;4974174;28;20027;-72
2021/08/30 13:26:46;;;;;;;4.18;2.30;;;;;;;;;;4970815;28;20148;-66
2021/08/30 13:29:12;;;;;;;2.40;2.20;;;;;;;;;;4967830;28;20098;-67
2021/08/30 13:31:38;;;;;;;5.13;2.30;;;;;;;;;;4969132;28;20392;-79
2021/08/30 13:34:07;;;;;;;3.78;1.88;;;;;;;;;;4972116;28;20110;-71
2021/08/30 13:36:33;;;;;;;4.30;3.70;;;;;;;;;;4957715;28;20070;-65
2021/08/30 13:38:59;;;;;;;5.07;2.40;;;;;;;;;;4970140;28;20018;-67
2021/08/30 13:41:25;;;;;;;10.13;2.50;;;;;;;;;;4974207;28;20046;-64
2021/08/30 13:43:52;;;;;;;1.98;1.88;;;;;;;;;;4975773;28;20031;-69
2021/08/30 13:46:18;;;;;;;3.75;2.15;;;;;;;;;;4976402;28;20027;-68
2021/08/30 13:48:44;;;;;;;3.78;2.13;;;;;;;;;;4972822;28;20029;-70
2021/08/30 13:51:11;;;;;;;2.75;2.40;;;;;;;;;;4973685;28;20015;-68
2021/08/30 13:53:37;;;;;;;2.35;2.10;;;;;;;;;;4976328;28;20058;-71
2021/08/30 13:56:04;;;;;;;2.10;1.90;;;;;;;;;;4976052;28;20023;-69
2021/08/30 13:58:30;;;;;;;4.22;2.25;;;;;;;;;;4975273;28;20071;-68
2021/08/30 14:00:56;;;;;;;2.30;2.03;;;;;;;;;;4975696;28;20110;-65
2021/08/30 14:03:22;;;;;;;3.00;2.05;;;;;;;;;;4968633;28;20027;-69
2021/08/30 14:05:48;;;;;;;2.67;2.40;;;;;;;;;;4975118;28;20087;-69
2021/08/30 14:08:14;;;;;;;3.25;1.98;;;;;;;;;;4975612;28;20090;-70
2021/08/30 14:10:40;;;;;;;2.15;2.05;;;;;;;;;;4972943;28;20031;-69
2021/08/30 14:13:06;;;;;;;5.90;2.35;;;;;;;;;;4975423;28;20034;-70
2021/08/30 14:15:34;;;;;;;2.20;2.00;;;;;;;;;;4971997;28;20077;-69
2021/08/30 14:18:00;;;;;;;2.58;2.28;;;;;;;;;;4968629;28;20031;-66
2021/08/30 14:20:26;;;;;;;2.70;2.10;;;;;;;;;;4973598;28;20109;-68
2021/08/30 14:22:52;;;;;;;2.78;2.25;;;;;;;;;;4974844;28;20058;-68
2021/08/30 14:25:19;;;;;;;3.83;2.30;;;;;;;;;;4970188;28;20079;-66
2021/08/30 14:27:45;;;;;;;2.75;2.33;;;;;;;;;;4975776;28;20019;-63
2021/08/30 14:30:12;;;;;;;3.72;2.15;;;;;;;;;;4971386;28;20061;-63
2021/08/30 14:32:39;;;;;;;2.92;2.28;;;;;;;;;;4972597;28;20973;-64
2021/08/30 14:35:05;;;;;;;3.83;2.03;;;;;;;;;;4974172;28;20023;-71
2021/08/30 14:37:32;;;;;;;2.72;2.20;;;;;;;;;;4962240;28;20488;-71
2021/08/30 14:40:04;;;;;;;2.60;2.10;;;;;;;;;;4974060;28;20015;-75
2021/08/30 14:42:30;;;;;;;3.77;2.50;;;;;;;;;;4974286;28;20516;-69
2021/08/30 14:44:56;;;;;;;4.40;2.60;;;;;;;;;;4974752;28;20030;-68
2021/08/30 14:47:23;;;;;;;2.50;2.30;;;;;;;;;;4973900;28;20029;-81
2021/08/30 14:49:49;;;;;;;2.28;2.05;;;;;;;;;;4968060;28;20495;-68
2021/08/30 14:52:15;;;;;;;3.70;2.10;;;;;;;;;;4969928;28;20038;-80